sensor_id;sensor_type;location;lat;lon;timestamp;P1;durP1;ratioP1;P2;durP2;ratioP2
1589;SDS011;788;48.720;9.158;2022-11-15T00:13:49;5.05;;;4.60;;
1589;SDS011;788;48.720;9.158;2022-11-15T00:16:16;5.45;;;4.95;;
1589;SDS011;788;48.720;9.158;2022-11-15T00:18:43;6.60;;;5.35;;
1589;SDS011;788;48.720;9.158;2022-11-15T00:21:11;6.45;;;5.75;;
1589;SDS011;788;48.720;9.158;2022-11-15T00:23:38;4.75;;;4.35;;
1589;SDS011;788;48.720;9.158;2022-11-15T00:26:10;5.90;;;3.83;;
1589;SDS011;788;48.720;9.158;2022-11-15T00:28:40;5.10;;;4.70;;
1589;SDS011;788;48.720;9.158;2022-11-15T00:31:11;5.28;;;4.82;;
1589;SDS011;788;48.720;9.158;2022-11-15T00:33:39;4.97;;;4.60;;
1589;SDS011;788;48.720;9.158;2022-11-15T00:36:08;5.97;;;5.47;;
1589;SDS011;788;48.720;9.158;2022-11-15T00:38:37;4.40;;;4.00;;
1589;SDS011;788;48.720;9.158;2022-11-15T00:41:08;5.60;;;5.10;;
1589;SDS011;788;48.720;9.158;2022-11-15T00:43:36;4.70;;;4.38;;
1589;SDS011;788;48.720;9.158;2022-11-15T00:46:07;5.13;;;4.35;;
1589;SDS011;788;48.720;9.158;2022-11-15T00:48:37;4.70;;;4.35;;
1589;SDS011;788;48.720;9.158;2022-11-15T00:51:04;6.10;;;5.50;;
1589;SDS011;788;48.720;9.158;2022-11-15T00:53:31;5.57;;;5.03;;
1589;SDS011;788;48.720;9.158;2022-11-15T00:56:04;6.97;;;5.00;;
1589;SDS011;788;48.720;9.158;2022-11-15T00:58:32;5.40;;;4.82;;
1589;SDS011;788;48.720;9.158;2022-11-15T01:01:05;4.00;;;3.70;;
1589;SDS011;788;48.720;9.158;2022-11-15T01:03:33;4.37;;;3.90;;
1589;SDS011;788;48.720;9.158;2022-11-15T01:06:02;4.65;;;3.95;;
1589;SDS011;788;48.720;9.158;2022-11-15T01:08:29;4.57;;;3.55;;
1589;SDS011;788;48.720;9.158;2022-11-15T01:10:59;3.65;;;3.35;;
1589;SDS011;788;48.720;9.158;2022-11-15T01:13:29;3.70;;;3.40;;
1589;SDS011;788;48.720;9.158;2022-11-15T01:15:57;4.32;;;3.92;;
1589;SDS011;788;48.720;9.158;2022-11-15T01:18:24;4.30;;;4.00;;
1589;SDS011;788;48.720;9.158;2022-11-15T01:20:51;3.83;;;3.47;;
1589;SDS011;788;48.720;9.158;2022-11-15T01:23:19;4.07;;;3.28;;
1589;SDS011;788;48.720;9.158;2022-11-15T01:25:46;3.10;;;2.90;;
1589;SDS011;788;48.720;9.158;2022-11-15T01:28:13;3.67;;;3.28;;
1589;SDS011;788;48.720;9.158;2022-11-15T01:30:40;6.20;;;3.70;;
1589;SDS011;788;48.720;9.158;2022-11-15T01:33:07;4.20;;;3.58;;
1589;SDS011;788;48.720;9.158;2022-11-15T01:35:38;3.75;;;3.45;;
1589;SDS011;788;48.720;9.158;2022-11-15T01:38:07;4.07;;;3.72;;
1589;SDS011;788;48.720;9.158;2022-11-15T01:40:35;3.20;;;2.90;;
1589;SDS011;788;48.720;9.158;2022-11-15T01:45:49;4.28;;;3.90;;
1589;SDS011;788;48.720;9.158;2022-11-15T01:48:19;3.20;;;2.90;;
1589;SDS011;788;48.720;9.158;2022-11-15T01:50:48;4.80;;;4.30;;
1589;SDS011;788;48.720;9.158;2022-11-15T01:53:16;4.45;;;3.58;;
1589;SDS011;788;48.720;9.158;2022-11-15T01:55:46;3.80;;;3.47;;
1589;SDS011;788;48.720;9.158;2022-11-15T01:58:13;3.80;;;3.50;;
1589;SDS011;788;48.720;9.158;2022-11-15T02:00:43;3.33;;;3.00;;
1589;SDS011;788;48.720;9.158;2022-11-15T02:03:42;3.83;;;3.40;;
1589;SDS011;788;48.720;9.158;2022-11-15T02:06:18;3.92;;;3.33;;
1589;SDS011;788;48.720;9.158;2022-11-15T02:08:49;3.25;;;3.03;;
1589;SDS011;788;48.720;9.158;2022-11-15T02:11:18;3.67;;;3.47;;
1589;SDS011;788;48.720;9.158;2022-11-15T02:13:45;6.20;;;3.83;;
1589;SDS011;788;48.720;9.158;2022-11-15T02:16:13;4.10;;;3.33;;
1589;SDS011;788;48.720;9.158;2022-11-15T02:18:58;5.25;;;4.13;;
1589;SDS011;788;48.720;9.158;2022-11-15T02:21:31;3.58;;;3.28;;
1589;SDS011;788;48.720;9.158;2022-11-15T02:24:09;4.20;;;3.90;;
1589;SDS011;788;48.720;9.158;2022-11-15T02:26:57;3.53;;;3.22;;
1589;SDS011;788;48.720;9.158;2022-11-15T02:32:40;4.35;;;3.67;;
1589;SDS011;788;48.720;9.158;2022-11-15T02:35:14;3.33;;;3.05;;
1589;SDS011;788;48.720;9.158;2022-11-15T02:37:51;3.92;;;3.50;;
1589;SDS011;788;48.720;9.158;2022-11-15T02:40:26;4.78;;;3.35;;
1589;SDS011;788;48.720;9.158;2022-11-15T02:43:02;5.35;;;4.95;;
1589;SDS011;788;48.720;9.158;2022-11-15T02:45:54;7.35;;;4.35;;
1589;SDS011;788;48.720;9.158;2022-11-15T02:48:28;4.13;;;3.83;;
1589;SDS011;788;48.720;9.158;2022-11-15T02:50:57;3.90;;;3.50;;
1589;SDS011;788;48.720;9.158;2022-11-15T02:53:25;3.45;;;3.17;;
1589;SDS011;788;48.720;9.158;2022-11-15T02:55:53;6.20;;;3.90;;
1589;SDS011;788;48.720;9.158;2022-11-15T02:58:26;3.70;;;3.40;;
1589;SDS011;788;48.720;9.158;2022-11-15T03:01:14;3.63;;;3.42;;
1589;SDS011;788;48.720;9.158;2022-11-15T03:04:02;4.32;;;3.22;;
1589;SDS011;788;48.720;9.158;2022-11-15T03:06:48;4.20;;;3.80;;
1589;SDS011;788;48.720;9.158;2022-11-15T03:09:21;3.83;;;3.45;;
1589;SDS011;788;48.720;9.158;2022-11-15T03:12:04;5.60;;;4.50;;
1589;SDS011;788;48.720;9.158;2022-11-15T03:14:39;4.88;;;4.28;;
1589;SDS011;788;48.720;9.158;2022-11-15T03:17:18;3.88;;;3.58;;
1589;SDS011;788;48.720;9.158;2022-11-15T03:19:55;3.83;;;3.25;;
1589;SDS011;788;48.720;9.158;2022-11-15T03:22:28;4.03;;;3.65;;
1589;SDS011;788;48.720;9.158;2022-11-15T03:25:02;3.97;;;3.67;;
1589;SDS011;788;48.720;9.158;2022-11-15T03:27:39;3.95;;;3.55;;
1589;SDS011;788;48.720;9.158;2022-11-15T03:30:10;3.90;;;3.60;;
1589;SDS011;788;48.720;9.158;2022-11-15T03:32:42;4.00;;;3.63;;
1589;SDS011;788;48.720;9.158;2022-11-15T03:35:11;4.43;;;3.60;;
1589;SDS011;788;48.720;9.158;2022-11-15T03:37:44;3.70;;;3.40;;
1589;SDS011;788;48.720;9.158;2022-11-15T03:40:16;3.70;;;3.30;;
1589;SDS011;788;48.720;9.158;2022-11-15T03:42:48;3.75;;;3.45;;
1589;SDS011;788;48.720;9.158;2022-11-15T03:45:25;3.67;;;3.38;;
1589;SDS011;788;48.720;9.158;2022-11-15T03:47:59;3.67;;;3.38;;
1589;SDS011;788;48.720;9.158;2022-11-15T03:50:30;4.05;;;3.67;;
1589;SDS011;788;48.720;9.158;2022-11-15T03:52:57;5.32;;;4.10;;
1589;SDS011;788;48.720;9.158;2022-11-15T03:55:25;3.42;;;3.13;;
1589;SDS011;788;48.720;9.158;2022-11-15T03:57:53;4.10;;;3.80;;
1589;SDS011;788;48.720;9.158;2022-11-15T04:00:23;4.10;;;3.85;;
1589;SDS011;788;48.720;9.158;2022-11-15T04:02:53;6.72;;;4.15;;
1589;SDS011;788;48.720;9.158;2022-11-15T04:05:24;4.85;;;4.38;;
1589;SDS011;788;48.720;9.158;2022-11-15T04:07:51;4.35;;;3.95;;
1589;SDS011;788;48.720;9.158;2022-11-15T04:10:18;4.50;;;3.85;;
1589;SDS011;788;48.720;9.158;2022-11-15T04:12:45;4.80;;;4.15;;
1589;SDS011;788;48.720;9.158;2022-11-15T04:15:13;3.78;;;3.47;;
1589;SDS011;788;48.720;9.158;2022-11-15T04:17:41;4.53;;;4.15;;
1589;SDS011;788;48.720;9.158;2022-11-15T04:20:10;4.32;;;4.00;;
1589;SDS011;788;48.720;9.158;2022-11-15T04:22:59;5.15;;;4.13;;
1589;SDS011;788;48.720;9.158;2022-11-15T04:25:49;5.65;;;4.55;;
1589;SDS011;788;48.720;9.158;2022-11-15T04:28:20;3.30;;;3.10;;
1589;SDS011;788;48.720;9.158;2022-11-15T04:30:50;4.70;;;4.30;;
1589;SDS011;788;48.720;9.158;2022-11-15T04:33:19;4.30;;;4.00;;
1589;SDS011;788;48.720;9.158;2022-11-15T04:35:56;4.40;;;4.07;;
1589;SDS011;788;48.720;9.158;2022-11-15T04:38:42;4.43;;;3.97;;
1589;SDS011;788;48.720;9.158;2022-11-15T04:41:20;4.18;;;3.80;;
1589;SDS011;788;48.720;9.158;2022-11-15T04:43:48;4.82;;;4.10;;
1589;SDS011;788;48.720;9.158;2022-11-15T04:46:15;5.68;;;4.70;;
1589;SDS011;788;48.720;9.158;2022-11-15T04:48:42;5.47;;;5.07;;
1589;SDS011;788;48.720;9.158;2022-11-15T04:51:08;5.10;;;4.60;;
1589;SDS011;788;48.720;9.158;2022-11-15T04:53:40;6.10;;;5.65;;
1589;SDS011;788;48.720;9.158;2022-11-15T04:56:09;5.07;;;4.57;;
1589;SDS011;788;48.720;9.158;2022-11-15T04:58:35;6.00;;;5.50;;
1589;SDS011;788;48.720;9.158;2022-11-15T05:01:06;6.57;;;4.53;;
1589;SDS011;788;48.720;9.158;2022-11-15T05:03:34;6.28;;;5.68;;
1589;SDS011;788;48.720;9.158;2022-11-15T05:06:19;5.80;;;5.30;;
1589;SDS011;788;48.720;9.158;2022-11-15T05:08:49;6.30;;;5.70;;
1589;SDS011;788;48.720;9.158;2022-11-15T05:11:16;7.43;;;5.05;;
1589;SDS011;788;48.720;9.158;2022-11-15T05:13:45;5.72;;;5.25;;
1589;SDS011;788;48.720;9.158;2022-11-15T05:16:12;5.40;;;4.03;;
1589;SDS011;788;48.720;9.158;2022-11-15T05:18:39;4.68;;;4.15;;
1589;SDS011;788;48.720;9.158;2022-11-15T05:21:07;4.75;;;4.30;;
1589;SDS011;788;48.720;9.158;2022-11-15T05:23:35;4.90;;;4.40;;
1589;SDS011;788;48.720;9.158;2022-11-15T05:26:04;5.65;;;5.15;;
1589;SDS011;788;48.720;9.158;2022-11-15T05:28:32;8.30;;;6.60;;
1589;SDS011;788;48.720;9.158;2022-11-15T05:31:00;5.97;;;5.47;;
1589;SDS011;788;48.720;9.158;2022-11-15T05:33:27;6.22;;;5.47;;
1589;SDS011;788;48.720;9.158;2022-11-15T05:35:54;5.20;;;4.80;;
1589;SDS011;788;48.720;9.158;2022-11-15T05:41:20;5.43;;;4.97;;
1589;SDS011;788;48.720;9.158;2022-11-15T05:44:04;7.50;;;5.30;;
1589;SDS011;788;48.720;9.158;2022-11-15T05:46:52;5.90;;;5.13;;
1589;SDS011;788;48.720;9.158;2022-11-15T05:52:30;5.85;;;5.35;;
1589;SDS011;788;48.720;9.158;2022-11-15T05:55:18;7.28;;;5.88;;
1589;SDS011;788;48.720;9.158;2022-11-15T05:58:02;5.93;;;5.53;;
1589;SDS011;788;48.720;9.158;2022-11-15T06:03:54;5.88;;;5.32;;
1589;SDS011;788;48.720;9.158;2022-11-15T06:09:59;4.80;;;4.35;;
1589;SDS011;788;48.720;9.158;2022-11-15T06:12:34;5.30;;;4.55;;
1589;SDS011;788;48.720;9.158;2022-11-15T06:25:25;5.82;;;5.15;;
1589;SDS011;788;48.720;9.158;2022-11-15T06:27:53;4.85;;;4.28;;
1589;SDS011;788;48.720;9.158;2022-11-15T06:30:20;4.40;;;3.95;;
1589;SDS011;788;48.720;9.158;2022-11-15T06:32:47;5.13;;;4.63;;
1589;SDS011;788;48.720;9.158;2022-11-15T06:45:53;6.22;;;5.22;;
1589;SDS011;788;48.720;9.158;2022-11-15T06:48:20;6.38;;;5.85;;
1589;SDS011;788;48.720;9.158;2022-11-15T06:50:49;7.28;;;6.13;;
1589;SDS011;788;48.720;9.158;2022-11-15T06:53:17;7.68;;;5.85;;
1589;SDS011;788;48.720;9.158;2022-11-15T06:55:44;7.00;;;6.50;;
1589;SDS011;788;48.720;9.158;2022-11-15T06:58:11;6.72;;;6.32;;
1589;SDS011;788;48.720;9.158;2022-11-15T07:00:38;8.02;;;7.32;;
1589;SDS011;788;48.720;9.158;2022-11-15T07:03:10;6.13;;;5.72;;
1589;SDS011;788;48.720;9.158;2022-11-15T07:05:37;5.95;;;5.00;;
1589;SDS011;788;48.720;9.158;2022-11-15T07:08:04;6.07;;;5.55;;
1589;SDS011;788;48.720;9.158;2022-11-15T07:10:30;7.65;;;6.85;;
1589;SDS011;788;48.720;9.158;2022-11-15T07:12:57;8.57;;;6.45;;
1589;SDS011;788;48.720;9.158;2022-11-15T07:15:24;10.40;;;6.20;;
1589;SDS011;788;48.720;9.158;2022-11-15T07:17:52;7.10;;;6.40;;
1589;SDS011;788;48.720;9.158;2022-11-15T07:20:20;6.47;;;5.88;;
1589;SDS011;788;48.720;9.158;2022-11-15T07:22:47;8.73;;;7.97;;
1589;SDS011;788;48.720;9.158;2022-11-15T07:25:14;8.13;;;6.28;;
1589;SDS011;788;48.720;9.158;2022-11-15T07:27:43;7.10;;;6.53;;
1589;SDS011;788;48.720;9.158;2022-11-15T07:30:22;9.45;;;7.32;;
1589;SDS011;788;48.720;9.158;2022-11-15T07:32:51;12.03;;;8.10;;
1589;SDS011;788;48.720;9.158;2022-11-15T07:35:20;12.50;;;8.82;;
1589;SDS011;788;48.720;9.158;2022-11-15T07:37:56;7.47;;;6.78;;
1589;SDS011;788;48.720;9.158;2022-11-15T07:43:29;8.32;;;6.03;;
1589;SDS011;788;48.720;9.158;2022-11-15T07:46:10;10.05;;;9.07;;
1589;SDS011;788;48.720;9.158;2022-11-15T07:48:37;7.07;;;6.38;;
1589;SDS011;788;48.720;9.158;2022-11-15T10:28:53;3.53;;;3.33;;
1589;SDS011;788;48.720;9.158;2022-11-15T10:31:23;6.13;;;4.60;;
1589;SDS011;788;48.720;9.158;2022-11-15T10:33:51;6.67;;;6.17;;
1589;SDS011;788;48.720;9.158;2022-11-15T10:36:24;8.23;;;4.20;;
1589;SDS011;788;48.720;9.158;2022-11-15T10:39:00;5.30;;;4.60;;
1589;SDS011;788;48.720;9.158;2022-11-15T10:41:30;10.53;;;5.50;;
1589;SDS011;788;48.720;9.158;2022-11-15T10:44:07;5.77;;;4.70;;
1589;SDS011;788;48.720;9.158;2022-11-15T10:50:00;5.07;;;4.47;;
1589;SDS011;788;48.720;9.158;2022-11-15T10:52:33;7.73;;;5.40;;
1589;SDS011;788;48.720;9.158;2022-11-15T10:55:12;6.00;;;5.30;;
1589;SDS011;788;48.720;9.158;2022-11-15T10:57:51;4.83;;;4.43;;
1589;SDS011;788;48.720;9.158;2022-11-15T11:00:28;7.93;;;5.50;;
1589;SDS011;788;48.720;9.158;2022-11-15T11:02:58;4.70;;;4.23;;
1589;SDS011;788;48.720;9.158;2022-11-15T11:05:27;8.00;;;5.50;;
1589;SDS011;788;48.720;9.158;2022-11-15T11:07:57;6.43;;;5.73;;
1589;SDS011;788;48.720;9.158;2022-11-15T11:10:26;7.60;;;5.70;;
1589;SDS011;788;48.720;9.158;2022-11-15T11:12:54;6.23;;;5.63;;
1589;SDS011;788;48.720;9.158;2022-11-15T11:15:20;6.83;;;5.57;;
1589;SDS011;788;48.720;9.158;2022-11-15T11:18:00;7.17;;;6.57;;
1589;SDS011;788;48.720;9.158;2022-11-15T11:20:36;6.87;;;5.80;;
1589;SDS011;788;48.720;9.158;2022-11-15T11:23:14;6.93;;;4.80;;
1589;SDS011;788;48.720;9.158;2022-11-15T11:25:55;7.10;;;5.77;;
1589;SDS011;788;48.720;9.158;2022-11-15T11:28:37;7.60;;;5.80;;
1589;SDS011;788;48.720;9.158;2022-11-15T11:31:13;8.10;;;4.60;;
1589;SDS011;788;48.720;9.158;2022-11-15T11:33:52;5.67;;;3.60;;
1589;SDS011;788;48.720;9.158;2022-11-15T11:36:34;7.10;;;3.30;;
1589;SDS011;788;48.720;9.158;2022-11-15T11:39:15;3.93;;;3.63;;
1589;SDS011;788;48.720;9.158;2022-11-15T11:41:49;5.70;;;3.60;;
1589;SDS011;788;48.720;9.158;2022-11-15T11:44:34;3.00;;;2.63;;
1589;SDS011;788;48.720;9.158;2022-11-15T11:47:10;3.40;;;3.10;;
1589;SDS011;788;48.720;9.158;2022-11-15T11:49:41;4.37;;;2.80;;
1589;SDS011;788;48.720;9.158;2022-11-15T11:52:14;2.10;;;1.90;;
1589;SDS011;788;48.720;9.158;2022-11-15T11:54:48;3.00;;;2.70;;
1589;SDS011;788;48.720;9.158;2022-11-15T11:57:23;2.13;;;2.03;;
1589;SDS011;788;48.720;9.158;2022-11-15T11:59:58;3.20;;;2.30;;
1589;SDS011;788;48.720;9.158;2022-11-15T12:02:28;9.63;;;3.57;;
1589;SDS011;788;48.720;9.158;2022-11-15T12:05:03;5.27;;;3.00;;
1589;SDS011;788;48.720;9.158;2022-11-15T12:07:35;3.70;;;3.40;;
1589;SDS011;788;48.720;9.158;2022-11-15T12:10:11;7.50;;;3.10;;
1589;SDS011;788;48.720;9.158;2022-11-15T12:12:44;4.07;;;2.67;;
1589;SDS011;788;48.720;9.158;2022-11-15T12:15:18;3.67;;;2.63;;
1589;SDS011;788;48.720;9.158;2022-11-15T12:17:48;2.97;;;2.00;;
1589;SDS011;788;48.720;9.158;2022-11-15T12:20:17;7.50;;;2.50;;
1589;SDS011;788;48.720;9.158;2022-11-15T12:22:47;4.20;;;3.80;;
1589;SDS011;788;48.720;9.158;2022-11-15T12:25:20;4.03;;;3.63;;
1589;SDS011;788;48.720;9.158;2022-11-15T12:27:50;5.77;;;4.40;;
1589;SDS011;788;48.720;9.158;2022-11-15T12:30:20;5.83;;;3.87;;
1589;SDS011;788;48.720;9.158;2022-11-15T12:32:49;5.50;;;4.50;;
1589;SDS011;788;48.720;9.158;2022-11-15T12:35:30;6.43;;;4.60;;
1589;SDS011;788;48.720;9.158;2022-11-15T12:38:00;4.73;;;4.33;;
1589;SDS011;788;48.720;9.158;2022-11-15T12:40:35;4.73;;;4.30;;
1589;SDS011;788;48.720;9.158;2022-11-15T12:46:10;4.60;;;4.20;;
1589;SDS011;788;48.720;9.158;2022-11-15T12:48:45;5.23;;;4.73;;
1589;SDS011;788;48.720;9.158;2022-11-15T12:51:16;5.13;;;4.53;;
1589;SDS011;788;48.720;9.158;2022-11-15T12:53:45;5.40;;;5.03;;
1589;SDS011;788;48.720;9.158;2022-11-15T12:56:21;6.23;;;5.37;;
1589;SDS011;788;48.720;9.158;2022-11-15T12:58:50;5.80;;;4.70;;
1589;SDS011;788;48.720;9.158;2022-11-15T13:04:24;6.87;;;5.67;;
1589;SDS011;788;48.720;9.158;2022-11-15T13:06:54;8.70;;;6.03;;
1589;SDS011;788;48.720;9.158;2022-11-15T13:18:26;5.30;;;4.80;;
1589;SDS011;788;48.720;9.158;2022-11-15T13:21:05;5.90;;;5.40;;
1589;SDS011;788;48.720;9.158;2022-11-15T13:24:04;5.43;;;4.83;;
1589;SDS011;788;48.720;9.158;2022-11-15T13:26:37;6.00;;;5.40;;
1589;SDS011;788;48.720;9.158;2022-11-15T13:29:12;5.43;;;4.57;;
1589;SDS011;788;48.720;9.158;2022-11-15T13:31:42;7.60;;;6.90;;
1589;SDS011;788;48.720;9.158;2022-11-15T13:34:26;5.40;;;5.00;;
1589;SDS011;788;48.720;9.158;2022-11-15T13:36:55;5.23;;;4.50;;
1589;SDS011;788;48.720;9.158;2022-11-15T13:39:28;5.80;;;5.30;;
1589;SDS011;788;48.720;9.158;2022-11-15T13:41:56;6.50;;;5.60;;
1589;SDS011;788;48.720;9.158;2022-11-15T13:44:26;6.20;;;5.33;;
1589;SDS011;788;48.720;9.158;2022-11-15T13:47:04;6.63;;;5.80;;
1589;SDS011;788;48.720;9.158;2022-11-15T13:49:32;5.77;;;5.23;;
1589;SDS011;788;48.720;9.158;2022-11-15T13:52:00;6.87;;;6.17;;
1589;SDS011;788;48.720;9.158;2022-11-15T13:54:32;6.70;;;5.93;;
1589;SDS011;788;48.720;9.158;2022-11-15T13:57:02;8.70;;;6.50;;
1589;SDS011;788;48.720;9.158;2022-11-15T13:59:35;7.23;;;5.40;;
1589;SDS011;788;48.720;9.158;2022-11-15T14:02:11;6.37;;;5.30;;
1589;SDS011;788;48.720;9.158;2022-11-15T14:04:45;4.87;;;4.57;;
1589;SDS011;788;48.720;9.158;2022-11-15T14:07:15;6.77;;;4.50;;
1589;SDS011;788;48.720;9.158;2022-11-15T14:09:46;6.13;;;5.60;;
1589;SDS011;788;48.720;9.158;2022-11-15T14:12:24;5.63;;;5.13;;
1589;SDS011;788;48.720;9.158;2022-11-15T14:14:56;5.33;;;4.83;;
1589;SDS011;788;48.720;9.158;2022-11-15T14:17:33;8.47;;;5.87;;
1589;SDS011;788;48.720;9.158;2022-11-15T14:20:02;6.27;;;5.77;;
1589;SDS011;788;48.720;9.158;2022-11-15T14:22:50;7.87;;;5.30;;
1589;SDS011;788;48.720;9.158;2022-11-15T14:25:20;5.63;;;5.13;;
1589;SDS011;788;48.720;9.158;2022-11-15T14:30:50;8.60;;;5.90;;
1589;SDS011;788;48.720;9.158;2022-11-15T14:33:19;6.37;;;5.30;;
1589;SDS011;788;48.720;9.158;2022-11-15T14:35:48;6.27;;;5.60;;
1589;SDS011;788;48.720;9.158;2022-11-15T14:38:15;5.83;;;5.33;;
1589;SDS011;788;48.720;9.158;2022-11-15T14:40:43;6.33;;;5.80;;
1589;SDS011;788;48.720;9.158;2022-11-15T14:43:10;7.03;;;6.43;;
1589;SDS011;788;48.720;9.158;2022-11-15T14:45:38;6.50;;;5.50;;
1589;SDS011;788;48.720;9.158;2022-11-15T14:48:05;5.97;;;5.50;;
1589;SDS011;788;48.720;9.158;2022-11-15T14:50:33;5.37;;;4.87;;
1589;SDS011;788;48.720;9.158;2022-11-15T14:53:03;4.43;;;4.03;;
1589;SDS011;788;48.720;9.158;2022-11-15T14:55:31;5.93;;;5.33;;
1589;SDS011;788;48.720;9.158;2022-11-15T14:58:02;5.50;;;5.00;;
1589;SDS011;788;48.720;9.158;2022-11-15T15:00:29;6.57;;;4.80;;
1589;SDS011;788;48.720;9.158;2022-11-15T15:02:59;7.70;;;4.63;;
1589;SDS011;788;48.720;9.158;2022-11-15T15:05:29;6.30;;;5.70;;
1589;SDS011;788;48.720;9.158;2022-11-15T15:07:58;4.87;;;4.43;;
1589;SDS011;788;48.720;9.158;2022-11-15T15:10:25;5.23;;;4.73;;
1589;SDS011;788;48.720;9.158;2022-11-15T15:12:56;8.30;;;5.23;;
1589;SDS011;788;48.720;9.158;2022-11-15T15:15:25;5.00;;;4.30;;
1589;SDS011;788;48.720;9.158;2022-11-15T15:17:57;5.80;;;5.30;;
1589;SDS011;788;48.720;9.158;2022-11-15T15:20:24;6.37;;;5.60;;
1589;SDS011;788;48.720;9.158;2022-11-15T15:22:50;8.80;;;5.77;;
1589;SDS011;788;48.720;9.158;2022-11-15T15:25:20;6.30;;;4.60;;
1589;SDS011;788;48.720;9.158;2022-11-15T15:27:48;6.13;;;5.43;;
1589;SDS011;788;48.720;9.158;2022-11-15T15:30:15;7.87;;;5.80;;
1589;SDS011;788;48.720;9.158;2022-11-15T15:32:43;5.93;;;5.43;;
1589;SDS011;788;48.720;9.158;2022-11-15T15:35:11;6.37;;;5.87;;
1589;SDS011;788;48.720;9.158;2022-11-15T15:37:39;7.73;;;6.33;;
1589;SDS011;788;48.720;9.158;2022-11-15T15:40:08;6.77;;;6.27;;
1589;SDS011;788;48.720;9.158;2022-11-15T15:42:38;8.07;;;7.10;;
1589;SDS011;788;48.720;9.158;2022-11-15T15:45:06;6.93;;;6.37;;
1589;SDS011;788;48.720;9.158;2022-11-15T15:47:33;7.83;;;6.90;;
1589;SDS011;788;48.720;9.158;2022-11-15T15:50:02;7.07;;;6.47;;
1589;SDS011;788;48.720;9.158;2022-11-15T15:52:29;8.13;;;6.53;;
1589;SDS011;788;48.720;9.158;2022-11-15T15:54:56;6.70;;;6.00;;
1589;SDS011;788;48.720;9.158;2022-11-15T15:57:22;7.20;;;6.40;;
1589;SDS011;788;48.720;9.158;2022-11-15T15:59:49;9.50;;;6.67;;
1589;SDS011;788;48.720;9.158;2022-11-15T16:02:16;8.40;;;7.70;;
1589;SDS011;788;48.720;9.158;2022-11-15T16:04:43;7.20;;;6.40;;
1589;SDS011;788;48.720;9.158;2022-11-15T16:07:12;7.30;;;6.60;;
1589;SDS011;788;48.720;9.158;2022-11-15T16:09:43;7.90;;;7.10;;
1589;SDS011;788;48.720;9.158;2022-11-15T16:12:28;7.83;;;7.03;;
1589;SDS011;788;48.720;9.158;2022-11-15T16:14:56;7.33;;;6.63;;
1589;SDS011;788;48.720;9.158;2022-11-15T16:17:24;8.63;;;7.03;;
1589;SDS011;788;48.720;9.158;2022-11-15T16:19:53;8.23;;;7.43;;
1589;SDS011;788;48.720;9.158;2022-11-15T16:22:21;10.53;;;7.60;;
1589;SDS011;788;48.720;9.158;2022-11-15T16:24:48;8.40;;;7.60;;
1589;SDS011;788;48.720;9.158;2022-11-15T16:27:15;10.10;;;7.80;;
1589;SDS011;788;48.720;9.158;2022-11-15T16:29:43;12.50;;;6.93;;
1589;SDS011;788;48.720;9.158;2022-11-15T16:32:10;8.77;;;7.97;;
1589;SDS011;788;48.720;9.158;2022-11-15T16:34:37;9.93;;;7.00;;
1589;SDS011;788;48.720;9.158;2022-11-15T16:37:04;8.03;;;7.33;;
1589;SDS011;788;48.720;9.158;2022-11-15T16:39:33;8.40;;;7.70;;
1589;SDS011;788;48.720;9.158;2022-11-15T16:42:00;9.37;;;8.50;;
1589;SDS011;788;48.720;9.158;2022-11-15T16:47:04;10.47;;;9.57;;
1589;SDS011;788;48.720;9.158;2022-11-15T16:49:37;13.73;;;8.20;;
1589;SDS011;788;48.720;9.158;2022-11-15T16:52:11;9.20;;;8.33;;
1589;SDS011;788;48.720;9.158;2022-11-15T16:54:51;9.53;;;8.67;;
1589;SDS011;788;48.720;9.158;2022-11-15T17:00:48;11.87;;;10.17;;
1589;SDS011;788;48.720;9.158;2022-11-15T17:03:16;10.30;;;7.70;;
1589;SDS011;788;48.720;9.158;2022-11-15T17:08:58;11.10;;;10.00;;
1589;SDS011;788;48.720;9.158;2022-11-15T17:11:29;12.00;;;10.80;;
1589;SDS011;788;48.720;9.158;2022-11-15T17:14:02;11.73;;;10.57;;
1589;SDS011;788;48.720;9.158;2022-11-15T17:16:30;13.10;;;9.53;;
1589;SDS011;788;48.720;9.158;2022-11-15T17:19:10;11.77;;;10.67;;
1589;SDS011;788;48.720;9.158;2022-11-15T17:21:39;9.13;;;8.27;;
1589;SDS011;788;48.720;9.158;2022-11-15T17:24:07;11.20;;;8.70;;
1589;SDS011;788;48.720;9.158;2022-11-15T17:26:37;12.60;;;10.43;;
1589;SDS011;788;48.720;9.158;2022-11-15T17:29:04;9.77;;;8.17;;
1589;SDS011;788;48.720;9.158;2022-11-15T17:31:32;13.10;;;8.10;;
1589;SDS011;788;48.720;9.158;2022-11-15T17:34:00;13.83;;;8.60;;
1589;SDS011;788;48.720;9.158;2022-11-15T17:36:30;9.33;;;8.43;;
1589;SDS011;788;48.720;9.158;2022-11-15T17:42:10;10.90;;;9.90;;
1589;SDS011;788;48.720;9.158;2022-11-15T17:44:37;14.13;;;8.77;;
1589;SDS011;788;48.720;9.158;2022-11-15T17:47:04;11.50;;;9.40;;
1589;SDS011;788;48.720;9.158;2022-11-15T17:49:32;11.13;;;8.80;;
1589;SDS011;788;48.720;9.158;2022-11-15T17:52:03;12.23;;;9.97;;
1589;SDS011;788;48.720;9.158;2022-11-15T17:54:35;15.00;;;9.80;;
1589;SDS011;788;48.720;9.158;2022-11-15T17:57:02;10.43;;;9.30;;
1589;SDS011;788;48.720;9.158;2022-11-15T17:59:41;12.80;;;9.30;;
1589;SDS011;788;48.720;9.158;2022-11-15T18:02:08;11.40;;;10.33;;
1589;SDS011;788;48.720;9.158;2022-11-15T18:04:35;11.23;;;10.07;;
1589;SDS011;788;48.720;9.158;2022-11-15T18:10:26;15.60;;;8.90;;
1589;SDS011;788;48.720;9.158;2022-11-15T18:12:54;9.43;;;8.53;;
1589;SDS011;788;48.720;9.158;2022-11-15T18:15:23;9.27;;;8.37;;
1589;SDS011;788;48.720;9.158;2022-11-15T18:18:06;10.47;;;9.57;;
1589;SDS011;788;48.720;9.158;2022-11-15T18:20:36;9.57;;;8.67;;
1589;SDS011;788;48.720;9.158;2022-11-15T18:23:03;10.20;;;9.23;;
1589;SDS011;788;48.720;9.158;2022-11-15T18:25:34;13.20;;;9.00;;
1589;SDS011;788;48.720;9.158;2022-11-15T18:28:04;11.37;;;10.20;;
1589;SDS011;788;48.720;9.158;2022-11-15T18:30:32;11.53;;;10.33;;
1589;SDS011;788;48.720;9.158;2022-11-15T18:33:03;10.07;;;9.07;;
1589;SDS011;788;48.720;9.158;2022-11-15T18:35:42;9.30;;;8.40;;
1589;SDS011;788;48.720;9.158;2022-11-15T18:38:13;8.77;;;7.33;;
1589;SDS011;788;48.720;9.158;2022-11-15T18:40:40;8.87;;;7.97;;
1589;SDS011;788;48.720;9.158;2022-11-15T18:43:11;8.07;;;7.13;;
1589;SDS011;788;48.720;9.158;2022-11-15T18:45:39;8.67;;;7.70;;
1589;SDS011;788;48.720;9.158;2022-11-15T18:48:20;6.47;;;6.00;;
1589;SDS011;788;48.720;9.158;2022-11-15T18:50:56;7.00;;;6.40;;
1589;SDS011;788;48.720;9.158;2022-11-15T18:53:29;8.33;;;7.63;;
1589;SDS011;788;48.720;9.158;2022-11-15T18:56:17;7.50;;;6.80;;
1589;SDS011;788;48.720;9.158;2022-11-15T18:58:52;8.53;;;7.63;;
1589;SDS011;788;48.720;9.158;2022-11-15T19:01:23;6.03;;;5.57;;
1589;SDS011;788;48.720;9.158;2022-11-15T19:03:52;5.23;;;4.83;;
1589;SDS011;788;48.720;9.158;2022-11-15T19:06:20;7.10;;;5.67;;
1589;SDS011;788;48.720;9.158;2022-11-15T19:08:59;6.53;;;5.83;;
1589;SDS011;788;48.720;9.158;2022-11-15T19:11:29;5.60;;;5.20;;
1589;SDS011;788;48.720;9.158;2022-11-15T19:13:58;6.90;;;6.30;;
1589;SDS011;788;48.720;9.158;2022-11-15T19:16:32;7.43;;;6.73;;
1589;SDS011;788;48.720;9.158;2022-11-15T19:22:35;7.30;;;5.67;;
1589;SDS011;788;48.720;9.158;2022-11-15T19:25:04;6.77;;;6.03;;
1589;SDS011;788;48.720;9.158;2022-11-15T19:27:33;5.47;;;5.07;;
1589;SDS011;788;48.720;9.158;2022-11-15T19:30:01;7.20;;;6.47;;
1589;SDS011;788;48.720;9.158;2022-11-15T19:32:33;6.30;;;5.80;;
1589;SDS011;788;48.720;9.158;2022-11-15T19:35:09;6.10;;;5.53;;
1589;SDS011;788;48.720;9.158;2022-11-15T19:37:39;5.30;;;4.90;;
1589;SDS011;788;48.720;9.158;2022-11-15T19:40:09;6.13;;;5.27;;
1589;SDS011;788;48.720;9.158;2022-11-15T19:42:41;5.60;;;5.17;;
1589;SDS011;788;48.720;9.158;2022-11-15T19:45:08;4.93;;;4.53;;
1589;SDS011;788;48.720;9.158;2022-11-15T19:47:40;5.30;;;4.80;;
1589;SDS011;788;48.720;9.158;2022-11-15T19:50:13;6.70;;;6.10;;
1589;SDS011;788;48.720;9.158;2022-11-15T19:52:40;5.83;;;5.37;;
1589;SDS011;788;48.720;9.158;2022-11-15T19:55:07;5.57;;;5.10;;
1589;SDS011;788;48.720;9.158;2022-11-15T19:57:34;5.23;;;4.70;;
1589;SDS011;788;48.720;9.158;2022-11-15T20:00:01;6.10;;;5.07;;
1589;SDS011;788;48.720;9.158;2022-11-15T20:06:10;4.60;;;4.30;;
1589;SDS011;788;48.720;9.158;2022-11-15T20:08:49;5.50;;;5.00;;
1589;SDS011;788;48.720;9.158;2022-11-15T20:11:16;6.73;;;4.27;;